Time;durP1;ratioP1;P1;durP2;ratioP2;P2;SDS_P1;SDS_P2;PMS_P1;PMS_P2;Temp;Humidity;BMP_temperature;BMP_pressure;BME280_temperature;BME280_humidity;BME280_pressure;Samples;Min_cycle;Max_cycle;Signal;HPM_P1;HPM_P2
2023/10/05 00:01:07;;;;;;;19.92;8.40;;;;;;;13.15;98.94;101698.09;5056143;28;20045;-83
2023/10/05 00:03:37;;;;;;;17.95;6.57;;;;;;;13.14;98.85;101680.69;5071561;28;20040;-82
2023/10/05 00:06:13;;;;;;;20.58;6.82;;;;;;;13.26;98.66;101696.13;5070878;28;20060;-82
2023/10/05 00:08:43;;;;;;;13.15;6.63;;;;;;;13.32;98.16;101693.88;5045441;28;20080;-81
2023/10/05 00:11:11;;;;;;;15.18;6.60;;;;;;;13.38;97.76;101682.78;5064688;28;20499;-81
2023/10/05 00:13:39;;;;;;;12.57;6.22;;;;;;;13.34;97.45;101682.25;5066731;28;20052;-81
2023/10/05 00:16:06;;;;;;;17.42;6.18;;;;;;;13.39;97.21;101681.78;5060149;28;20053;-82
2023/10/05 00:18:33;;;;;;;13.27;6.18;;;;;;;13.39;97.00;101680.00;5065675;28;20063;-83
2023/10/05 00:21:00;;;;;;;13.95;6.22;;;;;;;13.37;96.88;101689.81;5064369;28;20045;-82
2023/10/05 00:23:29;;;;;;;15.95;5.95;;;;;;;13.30;96.88;101683.50;5076838;28;20166;-83
2023/10/05 00:25:58;;;;;;;13.60;5.90;;;;;;;13.41;97.10;101693.81;5050747;28;20435;-83
2023/10/05 00:28:25;;;;;;;15.25;6.45;;;;;;;13.38;96.98;101682.78;5078013;28;20056;-83
2023/10/05 00:30:54;;;;;;;13.73;6.18;;;;;;;13.38;96.82;101688.84;5070641;28;20049;-83
2023/10/05 00:33:25;;;;;;;13.30;6.38;;;;;;;13.34;96.99;101692.75;5058748;28;20107;-84
2023/10/05 00:35:52;;;;;;;17.88;6.18;;;;;;;13.32;97.04;101684.19;5067792;28;20053;-82
2023/10/05 00:38:19;;;;;;;17.00;5.95;;;;;;;13.36;96.94;101685.53;5050796;28;20079;-84
2023/10/05 00:40:56;;;;;;;14.25;5.78;;;;;;;13.32;96.48;101681.56;5052832;28;20073;-84
2023/10/05 00:43:24;;;;;;;15.05;6.22;;;;;;;13.32;96.98;101680.72;5054610;28;20059;-85
2023/10/05 00:45:51;;;;;;;14.50;6.32;;;;;;;13.42;96.85;101686.75;5053811;28;20045;-84
2023/10/05 00:48:29;;;;;;;14.43;6.32;;;;;;;13.37;96.76;101686.38;5054834;28;20077;-83
2023/10/05 00:50:59;;;;;;;14.43;6.05;;;;;;;13.36;96.73;101680.28;5055364;28;20058;-82
2023/10/05 00:53:27;;;;;;;13.32;5.75;;;;;;;13.37;97.00;101675.84;5079767;28;20056;-82
2023/10/05 00:56:04;;;;;;;15.48;5.82;;;;;;;13.36;97.15;101685.53;5078148;28;20051;-84
2023/10/05 00:58:37;;;;;;;12.75;5.75;;;;;;;13.34;96.97;101679.59;5061447;28;20056;-83
2023/10/05 01:01:06;;;;;;;16.15;6.28;;;;;;;13.35;96.84;101683.88;5055376;28;20484;-83
2023/10/05 01:03:46;;;;;;;10.38;5.72;;;;;;;13.36;96.92;101698.69;5053848;28;20318;-83
2023/10/05 01:06:19;;;;;;;12.27;6.25;;;;;;;13.33;96.85;101698.16;5068590;28;20118;-81
2023/10/05 01:08:59;;;;;;;16.13;6.00;;;;;;;13.41;96.59;101693.00;5082128;28;20076;-84
2023/10/05 01:11:33;;;;;;;14.55;5.70;;;;;;;13.42;96.48;101698.09;5066113;28;20049;-83
2023/10/05 01:14:00;;;;;;;10.82;5.55;;;;;;;13.34;96.61;101698.00;5050341;28;20079;-82
2023/10/05 01:16:27;;;;;;;12.85;6.35;;;;;;;13.34;96.75;101687.50;5067102;28;20045;-83
2023/10/05 01:18:55;;;;;;;11.32;5.57;;;;;;;13.32;96.60;101692.06;5056745;28;20091;-83
2023/10/05 01:21:25;;;;;;;14.43;5.88;;;;;;;13.34;96.75;101687.50;5055737;28;20104;-82
2023/10/05 01:23:53;;;;;;;14.93;5.78;;;;;;;13.33;96.81;101685.84;5067693;28;21311;-83
2023/10/05 01:26:20;;;;;;;14.52;6.13;;;;;;;13.38;96.91;101688.84;5069576;28;20400;-82
2023/10/05 01:28:47;;;;;;;15.43;5.53;;;;;;;13.36;96.63;101682.91;5053657;28;20107;-81
2023/10/05 01:31:16;;;;;;;14.10;5.82;;;;;;;13.36;96.84;101695.22;5078784;28;20052;-83
2023/10/05 01:33:44;;;;;;;12.77;6.05;;;;;;;13.44;96.63;101698.78;5064161;28;20098;-83
2023/10/05 01:36:12;;;;;;;12.50;5.50;;;;;;;13.34;96.66;101687.50;5075712;28;20045;-81
2023/10/05 01:38:39;;;;;;;11.93;5.60;;;;;;;13.39;96.80;101695.78;5077984;28;20044;-82
2023/10/05 01:41:10;;;;;;;11.82;5.97;;;;;;;13.45;96.76;101695.19;5057636;28;20087;-83
2023/10/05 01:43:42;;;;;;;14.15;5.80;;;;;;;13.41;96.69;101691.19;5071324;28;20537;-84
2023/10/05 01:46:10;;;;;;;13.50;5.88;;;;;;;13.34;96.82;101692.75;5057110;28;20124;-83
2023/10/05 01:48:41;;;;;;;13.57;5.72;;;;;;;13.42;97.10;101700.72;5049791;28;20057;-82
2023/10/05 01:51:08;;;;;;;12.35;5.63;;;;;;;13.52;96.80;101700.66;5059217;28;20148;-84
2023/10/05 01:53:34;;;;;;;12.73;6.03;;;;;;;13.44;96.79;101698.78;5050455;28;20056;-84
2023/10/05 01:56:01;;;;;;;15.55;5.55;;;;;;;13.40;96.90;101697.41;5067663;28;20048;-83
2023/10/05 01:58:34;;;;;;;12.10;5.50;;;;;;;13.36;97.16;101698.69;5076319;28;20076;-84
2023/10/05 02:01:06;;;;;;;13.43;6.22;;;;;;;13.37;96.94;101696.88;5080763;28;20474;-82
2023/10/05 02:03:33;;;;;;;11.10;5.10;;;;;;;13.36;96.96;101706.56;5069564;28;20049;-83
2023/10/05 02:06:05;;;;;;;17.95;5.60;;;;;;;13.29;97.03;101697.63;5076552;28;20551;-84
2023/10/05 02:08:34;;;;;;;13.25;5.53;;;;;;;13.33;97.05;101701.63;5075343;28;20112;-82
2023/10/05 02:11:04;;;;;;;10.20;4.65;;;;;;;13.29;96.78;101693.19;5051603;28;20044;-83
2023/10/05 02:13:32;;;;;;;10.50;4.95;;;;;;;13.39;96.51;101690.50;5077374;28;20044;-83
2023/10/05 02:16:02;;;;;;;13.65;5.47;;;;;;;13.40;96.27;101691.34;5073450;28;20048;-82
2023/10/05 02:18:55;;;;;;;10.65;5.03;;;;;;;13.31;96.40;101672.03;5073685;28;20053;-83
2023/10/05 02:27:46;;;;;;;10.15;5.07;;;;;;;13.29;96.28;101679.22;5089545;28;20050;-82
2023/10/05 02:30:34;;;;;;;8.93;5.10;;;;;;;13.23;96.49;101666.69;5078832;28;20049;-81
2023/10/05 02:33:08;;;;;;;;;;;;;;;13.25;96.69;101677.88;5057514;28;20056;-80
2023/10/05 02:35:38;;;;;;;15.50;5.50;;;;;;;13.26;96.62;101674.25;5055423;28;19928;-82
2023/10/05 02:38:06;;;;;;;10.82;5.28;;;;;;;13.32;96.07;101678.94;5064311;28;20048;-80
2023/10/05 02:40:35;;;;;;;14.00;5.38;;;;;;;13.34;95.67;101666.47;5069599;28;20055;-82
2023/10/05 02:43:07;;;;;;;12.38;5.30;;;;;;;13.36;95.56;101664.50;5070056;28;20061;-83
2023/10/05 02:45:36;;;;;;;11.77;5.53;;;;;;;13.39;95.49;101674.72;5073229;28;20291;-81
2023/10/05 02:48:05;;;;;;;12.30;5.13;;;;;;;13.39;95.59;101672.09;5071685;28;20060;-82
2023/10/05 02:50:32;;;;;;;10.32;4.82;;;;;;;13.32;95.79;101660.53;5063248;28;20049;-84
2023/10/05 02:53:04;;;;;;;14.02;5.60;;;;;;;13.29;95.92;101661.66;5060683;28;20059;-82
2023/10/05 02:55:36;;;;;;;8.90;4.53;;;;;;;13.33;96.06;101664.81;5058328;28;20052;-83
2023/10/05 02:58:02;;;;;;;14.88;5.40;;;;;;;13.31;96.00;101660.69;5067869;28;20079;-81
2023/10/05 03:00:29;;;;;;;13.85;4.85;;;;;;;13.31;96.01;101650.97;5071209;28;20049;-82
2023/10/05 03:03:01;;;;;;;16.30;5.47;;;;;;;13.27;95.95;101662.78;5074960;28;20511;-82
2023/10/05 03:05:28;;;;;;;9.70;4.85;;;;;;;13.30;96.18;101670.38;5058405;28;20418;-81
2023/10/05 03:07:56;;;;;;;10.82;4.65;;;;;;;13.31;96.30;101666.75;5058608;28;20072;-82
2023/10/05 03:10:23;;;;;;;12.63;5.20;;;;;;;13.24;96.43;101661.25;5066537;28;20049;-82
2023/10/05 03:12:51;;;;;;;11.38;5.25;;;;;;;13.23;96.79;101669.31;5073265;28;20122;-82
2023/10/05 03:15:23;;;;;;;9.77;4.57;;;;;;;13.18;96.66;101653.19;5067865;28;20076;-82
2023/10/05 03:17:52;;;;;;;14.45;5.20;;;;;;;13.09;97.11;101668.00;5052087;28;20048;-82
2023/10/05 03:20:22;;;;;;;9.45;4.72;;;;;;;13.16;97.09;101663.00;5072651;28;20108;-82
2023/10/05 03:22:48;;;;;;;15.00;4.80;;;;;;;13.13;97.46;101668.53;5070063;28;20049;-81
2023/10/05 03:25:16;;;;;;;15.85;5.13;;;;;;;13.16;97.41;101670.88;5078503;28;20053;-81
2023/10/05 03:27:45;;;;;;;10.75;5.00;;;;;;;13.27;97.21;101675.91;5075614;28;20102;-81
2023/10/05 03:30:15;;;;;;;11.73;4.57;;;;;;;13.09;97.49;101675.03;5071524;28;20052;-81
2023/10/05 03:32:51;;;;;;;15.05;5.30;;;;;;;13.09;97.76;101672.41;5080014;28;20048;-82
2023/10/05 03:38:09;;;;;;;12.02;5.00;;;;;;;12.90;98.16;101660.19;5033186;28;20064;-83
2023/10/05 03:40:43;;;;;;;12.13;5.63;;;;;;;12.99;98.46;101672.47;5051128;28;20045;-81
2023/10/05 03:43:13;;;;;;;13.63;5.10;;;;;;;12.87;98.81;101657.84;5060095;28;20049;-83
2023/10/05 03:45:42;;;;;;;14.48;5.40;;;;;;;12.96;98.68;101673.56;5050814;28;20400;-81
2023/10/05 03:48:29;;;;;;;12.55;5.28;;;;;;;12.91;98.92;101673.19;5078162;28;20044;-84
2023/10/05 03:50:59;;;;;;;15.65;6.18;;;;;;;12.96;99.37;101683.25;5084338;28;20037;-82
2023/10/05 03:53:31;;;;;;;9.18;4.68;;;;;;;12.76;99.52;101656.25;5089365;28;20048;-81
2023/10/05 03:56:05;;;;;;;13.43;5.25;;;;;;;12.84;99.42;101656.34;5087532;28;20041;-85
2023/10/05 03:58:36;;;;;;;11.40;4.85;;;;;;;12.87;99.63;101682.34;5084993;28;20071;-84
2023/10/05 04:01:04;;;;;;;12.18;4.90;;;;;;;12.80;99.68;101673.38;5075804;28;20034;-83
2023/10/05 04:03:31;;;;;;;13.77;5.07;;;;;;;12.75;99.93;101669.56;5079525;28;20044;-84
2023/10/05 04:09:09;;;;;;;15.75;5.10;;;;;;;12.92;99.71;101680.09;5055632;28;20128;-83
2023/10/05 04:11:55;;;;;;;8.73;4.30;;;;;;;12.88;99.47;101680.53;5061514;28;20057;-84
2023/10/05 04:14:22;;;;;;;10.70;5.13;;;;;;;12.96;99.65;101681.47;5048525;28;20054;-83
2023/10/05 04:16:50;;;;;;;10.85;5.22;;;;;;;12.89;99.59;101659.38;5058481;28;20113;-81
2023/10/05 04:19:17;;;;;;;10.18;4.32;;;;;;;13.02;99.20;101681.84;5051681;28;20060;-83
2023/10/05 04:21:46;;;;;;;11.57;4.45;;;;;;;13.05;98.84;101681.56;5060046;28;20049;-82
2023/10/05 04:24:14;;;;;;;14.43;4.60;;;;;;;13.04;98.71;101674.66;5068314;28;20064;-83
2023/10/05 04:26:44;;;;;;;10.88;5.07;;;;;;;13.00;98.75;101668.03;5076571;28;20441;-81
2023/10/05 04:29:12;;;;;;;11.77;4.80;;;;;;;13.12;98.41;101672.13;5065633;28;20499;-83
2023/10/05 04:32:15;;;;;;;14.95;4.68;;;;;;;13.08;97.80;101660.25;5062419;28;20049;-82
2023/10/05 04:34:44;;;;;;;10.30;4.07;;;;;;;13.11;97.85;101660.78;5028652;28;20060;-84
2023/10/05 04:37:12;;;;;;;9.00;4.35;;;;;;;13.04;97.98;101662.34;5064673;28;20052;-82
2023/10/05 04:39:59;;;;;;;10.77;4.45;;;;;;;12.95;98.20;101653.53;5056703;28;20077;-81
2023/10/05 04:42:27;;;;;;;12.25;4.50;;;;;;;12.86;98.45;101653.56;5066164;28;20060;-84
2023/10/05 04:44:54;;;;;;;14.35;5.47;;;;;;;12.92;98.42;101655.63;5045113;28;20049;-84
2023/10/05 04:47:20;;;;;;;11.73;4.50;;;;;;;12.81;98.67;101654.00;5072273;28;20053;-83
2023/10/05 04:50:35;;;;;;;16.25;4.68;;;;;;;12.80;99.16;101656.78;5061437;28;20057;-83
2023/10/05 04:57:06;;;;;;;11.75;4.82;;;;;;;12.76;99.31;101656.25;5044942;28;20091;-84
2023/10/05 04:59:58;;;;;;;9.95;4.63;;;;;;;12.86;99.41;101674.59;5056028;28;20482;-83
2023/10/05 05:02:39;;;;;;;15.10;4.80;;;;;;;12.76;99.62;101664.13;5078461;28;20123;-83
2023/10/05 05:05:21;;;;;;;13.30;4.80;;;;;;;12.80;99.86;101677.78;5049988;28;20422;-83
2023/10/05 05:07:51;;;;;;;13.43;4.70;;;;;;;12.76;99.92;101666.75;5066684;28;20056;-85
2023/10/05 05:10:20;;;;;;;11.98;5.38;;;;;;;12.61;100.00;101653.28;5072075;28;20076;-83
2023/10/05 05:12:50;;;;;;;7.82;4.10;;;;;;;12.73;99.96;101664.44;5071277;28;20473;-84
2023/10/05 05:15:42;;;;;;;13.93;4.97;;;;;;;12.67;100.00;101658.94;5053207;28;20139;-84
2023/10/05 05:18:14;;;;;;;12.05;4.72;;;;;;;12.61;100.00;101647.22;5057700;28;20411;-84
2023/10/05 05:20:44;;;;;;;7.82;4.15;;;;;;;12.74;100.00;101679.22;5049505;28;20055;-84
2023/10/05 05:23:12;;;;;;;13.15;4.53;;;;;;;12.74;100.00;101673.16;5054452;28;20056;-84
2023/10/05 05:25:39;;;;;;;15.20;4.90;;;;;;;12.79;100.00;101666.47;5061782;28;20045;-85
2023/10/05 05:28:08;;;;;;;10.95;4.78;;;;;;;12.77;100.00;101660.53;5067948;28;20337;-84
2023/10/05 05:30:36;;;;;;;13.90;4.50;;;;;;;12.68;100.00;101664.03;5059635;28;20057;-85
2023/10/05 05:33:09;;;;;;;10.98;5.10;;;;;;;12.73;100.00;101671.50;5054472;28;20522;-85
2023/10/05 05:35:36;;;;;;;11.25;5.03;;;;;;;12.68;100.00;101655.34;5073402;28;20506;-84
2023/10/05 05:38:33;;;;;;;13.50;4.68;;;;;;;12.71;100.00;101668.19;5061365;28;20128;-83
2023/10/05 05:41:01;;;;;;;16.95;5.97;;;;;;;12.75;100.00;101666.94;5050607;28;20075;-83
2023/10/05 05:43:29;;;;;;;13.30;4.70;;;;;;;12.83;100.00;101667.81;5061619;28;20084;-84
2023/10/05 05:45:58;;;;;;;12.00;5.60;;;;;;;12.82;100.00;101658.28;5050615;28;20447;-83
2023/10/05 05:48:25;;;;;;;13.38;4.70;;;;;;;12.91;100.00;101657.44;5073779;28;20055;-81
2023/10/05 05:50:54;;;;;;;12.77;4.80;;;;;;;12.89;100.00;101651.50;5071316;28;20063;-83
2023/10/05 05:53:21;;;;;;;12.40;4.65;;;;;;;12.91;100.00;101657.44;5058545;28;20447;-83
2023/10/05 05:55:53;;;;;;;17.77;5.43;;;;;;;12.93;100.00;101663.38;5068635;28;20116;-81
2023/10/05 05:58:19;;;;;;;14.43;5.43;;;;;;;13.06;100.00;101667.44;5070322;28;20080;-83
2023/10/05 06:00:47;;;;;;;13.57;4.90;;;;;;;13.11;100.00;101671.28;5060965;28;20060;-82
2023/10/05 06:03:16;;;;;;;9.57;4.53;;;;;;;13.12;100.00;101666.88;5053235;28;20080;-84
2023/10/05 06:05:43;;;;;;;11.07;4.43;;;;;;;13.05;99.97;101655.28;5075662;28;20053;-83
2023/10/05 06:08:11;;;;;;;13.73;5.00;;;;;;;13.09;99.96;101669.78;5074417;28;20045;-84
2023/10/05 06:10:38;;;;;;;12.25;4.15;;;;;;;13.25;99.80;101677.88;5060137;28;20127;-83
2023/10/05 06:13:11;;;;;;;12.70;4.45;;;;;;;13.21;99.65;101677.34;5063976;28;20044;-83
2023/10/05 06:15:38;;;;;;;17.30;5.35;;;;;;;13.23;99.51;101669.31;5069428;28;20052;-84
2023/10/05 06:18:07;;;;;;;12.73;5.05;;;;;;;13.17;99.04;101667.28;5071093;28;20045;-82
2023/10/05 06:20:35;;;;;;;11.52;4.68;;;;;;;13.28;99.07;101677.56;5069948;28;20053;-83
2023/10/05 06:23:02;;;;;;;14.68;4.65;;;;;;;13.47;98.62;101687.97;5060028;28;20045;-85
2023/10/05 06:25:29;;;;;;;13.57;4.95;;;;;;;13.42;98.43;101692.84;5077197;28;20048;-85
2023/10/05 06:27:56;;;;;;;12.60;4.72;;;;;;;13.41;98.24;101688.56;5070334;28;20070;-82
2023/10/05 06:30:26;;;;;;;14.23;5.22;;;;;;;13.50;97.82;101689.47;5065299;28;20076;-82
2023/10/05 06:32:54;;;;;;;19.88;5.25;;;;;;;13.60;97.51;101688.44;5069401;28;20049;-85
2023/10/05 06:35:22;;;;;;;20.65;5.22;;;;;;;13.64;97.54;101698.66;5078958;28;20067;-82
2023/10/05 06:37:50;;;;;;;16.17;5.85;;;;;;;13.61;97.66;101695.34;5054122;28;20084;-81
2023/10/05 06:40:22;;;;;;;13.27;4.57;;;;;;;13.60;97.53;101706.84;5079888;28;20494;-82
2023/10/05 06:42:49;;;;;;;15.80;4.63;;;;;;;13.53;97.37;101689.19;5060091;28;20053;-83
2023/10/05 06:45:19;;;;;;;13.93;4.90;;;;;;;13.66;97.51;101692.28;5060797;28;20061;-82
2023/10/05 06:47:46;;;;;;;13.20;5.38;;;;;;;13.53;97.33;101686.53;5059189;28;20049;-84
2023/10/05 06:50:13;;;;;;;9.77;4.60;;;;;;;13.59;97.24;101689.41;5058738;28;20056;-83
2023/10/05 06:52:43;;;;;;;14.30;5.00;;;;;;;13.69;97.52;101701.66;5058301;28;20079;-84
2023/10/05 06:55:11;;;;;;;12.88;5.28;;;;;;;13.75;97.42;101701.03;5061646;28;20045;-87
2023/10/05 06:57:38;;;;;;;18.88;5.55;;;;;;;13.76;97.29;101698.25;5049670;28;20049;-83
2023/10/05 07:00:16;;;;;;;18.02;6.07;;;;;;;13.84;97.15;101700.13;5055302;28;20167;-82
2023/10/05 07:02:43;;;;;;;17.83;5.47;;;;;;;13.74;97.48;101683.59;5050249;28;20063;-84
2023/10/05 07:05:14;;;;;;;16.17;5.22;;;;;;;13.84;97.35;101700.13;5056647;28;20045;-83
2023/10/05 07:07:42;;;;;;;18.10;4.82;;;;;;;13.92;97.08;101693.16;5060634;28;20049;-83
2023/10/05 07:10:10;;;;;;;11.80;4.55;;;;;;;13.90;97.03;101707.44;5069360;28;20106;-85
2023/10/05 07:12:39;;;;;;;17.10;5.20;;;;;;;13.89;96.85;101697.88;5062463;28;20089;-84
2023/10/05 07:15:10;;;;;;;16.65;4.85;;;;;;;13.90;96.98;101704.78;5056104;28;20084;-84
2023/10/05 07:17:37;;;;;;;12.15;4.70;;;;;;;13.91;97.06;101706.44;5043609;28;20059;-84
2023/10/05 07:20:05;;;;;;;10.82;4.47;;;;;;;13.99;96.84;101714.41;5074582;28;20150;-83
2023/10/05 07:22:32;;;;;;;16.98;4.50;;;;;;;13.95;97.02;101713.06;5064760;28;20041;-85
2023/10/05 07:25:05;;;;;;;14.20;5.05;;;;;;;13.91;97.01;101711.72;5059624;28;20060;-84
2023/10/05 07:27:41;;;;;;;;;;;;;;;13.98;97.25;101733.81;5052388;28;20049;-84
2023/10/05 07:30:15;;;;;;;9.35;4.22;;;;;;;14.08;97.00;101734.56;5052417;28;20058;-84
2023/10/05 07:32:42;;;;;;;11.88;4.90;;;;;;;14.12;96.53;101724.56;5058903;28;20049;-84
2023/10/05 07:35:14;;;;;;;9.88;4.25;;;;;;;14.07;96.34;101729.47;5049750;28;20084;-83
2023/10/05 07:37:52;;;;;;;15.93;5.70;;;;;;;14.14;96.02;101731.31;5062098;28;20049;-83
2023/10/05 07:40:30;;;;;;;13.45;5.05;;;;;;;14.24;96.25;101754.91;5068378;28;20040;-85
2023/10/05 07:42:58;;;;;;;9.35;4.70;;;;;;;14.14;96.25;101730.50;5077917;28;20052;-84
2023/10/05 07:45:28;;;;;;;17.67;5.13;;;;;;;14.19;96.09;101739.56;5078972;28;20045;-81
2023/10/05 07:47:55;;;;;;;13.85;4.85;;;;;;;14.40;96.08;101747.13;5067475;28;20045;-83
2023/10/05 07:50:23;;;;;;;10.82;5.15;;;;;;;14.33;96.19;101742.63;5055113;28;20055;-81
2023/10/05 07:52:50;;;;;;;13.60;4.57;;;;;;;14.47;95.93;101763.19;5064916;28;20088;-81
2023/10/05 07:55:17;;;;;;;14.25;5.30;;;;;;;14.53;95.64;101773.94;5081512;28;20073;-85
2023/10/05 07:57:45;;;;;;;14.95;6.18;;;;;;;14.61;95.41;101762.63;5067293;28;20095;-83
2023/10/05 08:00:13;;;;;;;12.15;4.32;;;;;;;14.71;95.02;101765.97;5057625;28;20076;-81
2023/10/05 08:02:40;;;;;;;13.40;5.07;;;;;;;14.88;95.00;101770.38;5063054;28;20052;-83
2023/10/05 08:05:09;;;;;;;12.98;4.43;;;;;;;14.90;94.48;101767.56;5063647;28;20618;-85
2023/10/05 08:07:35;;;;;;;15.60;4.55;;;;;;;15.15;93.60;101766.69;5063404;28;20109;-85
2023/10/05 08:10:03;;;;;;;13.27;4.82;;;;;;;15.19;93.03;101775.13;5074127;28;20111;-85
2023/10/05 08:12:30;;;;;;;11.27;4.45;;;;;;;15.36;92.42;101779.47;5075871;28;20127;-84
2023/10/05 08:14:57;;;;;;;14.45;5.30;;;;;;;15.50;91.87;101770.97;5083008;28;20044;-84
2023/10/05 08:17:24;;;;;;;10.02;4.60;;;;;;;15.62;91.32;101770.66;5053343;28;20044;-83
2023/10/05 08:22:28;;;;;;;9.25;4.07;;;;;;;16.01;89.46;101766.47;5013223;28;20398;-81
2023/10/05 08:24:57;;;;;;;14.80;4.55;;;;;;;16.08;89.25;101748.97;5016861;28;20083;-80
2023/10/05 08:28:08;;;;;;;;;;;;;;;;;;;;;
2023/10/05 08:37:32;;;;;;;15.10;4.65;;;;;;;16.40;87.32;101737.56;4952392;28;20054;-83
2023/10/05 08:43:19;;;;;;;16.73;5.05;;;;;;;16.70;86.09;101749.25;4962960;28;20047;-82
2023/10/05 09:03:05;;;;;;;9.45;3.95;;;;;;;16.35;86.33;101771.59;4801857;29;20073;-83
2023/10/05 09:08:57;;;;;;;16.92;4.75;;;;;;;16.02;86.83;101768.13;5006682;28;20046;-81
2023/10/05 09:11:46;;;;;;;12.27;4.00;;;;;;;16.15;86.95;101771.06;5002979;28;20505;-83
2023/10/05 09:15:08;;;;;;;12.73;4.60;;;;;;;16.26;86.26;101780.50;5004329;28;20092;-82
2023/10/05 09:17:58;;;;;;;12.55;4.20;;;;;;;16.04;86.30;101766.13;5002988;28;20046;-81
2023/10/05 09:23:47;;;;;;;11.40;4.20;;;;;;;16.19;85.32;101764.47;4989985;28;20054;-83
2023/10/05 09:26:33;;;;;;;11.25;3.90;;;;;;;16.35;85.58;101786.59;5002015;28;20098;-83
2023/10/05 09:32:44;;;;;;;13.23;4.70;;;;;;;16.55;85.57;101783.44;4989456;28;20054;-82
2023/10/05 09:35:36;;;;;;;7.82;4.25;;;;;;;16.60;85.14;101786.41;5001634;28;20128;-83
2023/10/05 09:47:35;;;;;;;11.20;4.10;;;;;;;16.43;83.95;101798.00;4940079;28;20058;-80
2023/10/05 09:53:17;;;;;;;14.80;4.10;;;;;;;16.41;83.87;101794.69;5009919;28;20058;-82
2023/10/05 09:55:54;;;;;;;13.75;4.30;;;;;;;16.35;84.03;101805.91;5010269;28;20057;-83
2023/10/05 09:58:34;;;;;;;10.18;4.10;;;;;;;16.34;84.31;101798.97;5017849;28;20054;-85
2023/10/05 10:01:21;;;;;;;15.27;5.00;;;;;;;16.48;83.69;101821.28;5020784;28;20042;-81
2023/10/05 10:04:09;;;;;;;10.23;3.88;;;;;;;16.66;83.71;101826.41;5016203;28;20057;-84
2023/10/05 10:07:22;;;;;;;11.45;4.40;;;;;;;16.69;84.60;101811.03;5013131;28;20050;-82
2023/10/05 10:09:53;;;;;;;;;;;;;;;16.87;83.96;101832.00;4922767;29;20059;-83
2023/10/05 10:13:04;;;;;;;8.32;4.10;;;;;;;16.81;84.01;101800.94;4918968;29;19953;-82
2023/10/05 10:15:46;;;;;;;9.57;4.40;;;;;;;16.86;83.94;101799.44;4911889;29;20048;-83
2023/10/05 10:18:52;;;;;;;17.88;4.47;;;;;;;16.87;84.10;101803.75;4924173;29;20115;-81
2023/10/05 10:21:24;;;;;;;15.82;5.03;;;;;;;16.92;84.17;101809.34;4981314;28;20137;-78
2023/10/05 10:24:03;;;;;;;13.13;3.92;;;;;;;17.01;84.23;101818.09;4995975;28;20492;-79
2023/10/05 10:26:29;;;;;;;12.23;4.20;;;;;;;17.09;84.41;101811.94;4995557;28;20117;-76
2023/10/05 10:29:14;;;;;;;11.50;4.25;;;;;;;17.10;84.02;101805.66;4995750;28;20078;-79
2023/10/05 10:31:47;;;;;;;15.93;4.05;;;;;;;17.31;83.33;101813.03;4995850;28;20343;-76
2023/10/05 10:34:31;;;;;;;14.18;4.95;;;;;;;17.16;82.50;101797.03;4991816;28;20065;-79
2023/10/05 10:36:57;;;;;;;11.27;4.45;;;;;;;16.90;83.19;101778.78;4995301;28;20516;-78
2023/10/05 10:39:27;;;;;;;11.30;4.22;;;;;;;16.98;83.22;101793.81;5001155;28;20073;-78
2023/10/05 10:42:09;;;;;;;12.07;4.65;;;;;;;16.77;82.86;101765.25;4999306;28;20129;-78
2023/10/05 10:44:57;;;;;;;12.65;4.47;;;;;;;16.85;83.50;101797.81;4994902;28;20070;-77
2023/10/05 10:47:26;;;;;;;9.48;4.45;;;;;;;16.86;83.45;101802.09;4999502;28;20544;-79
2023/10/05 10:50:11;;;;;;;9.55;4.60;;;;;;;16.80;83.38;101794.84;4998663;28;20046;-78
2023/10/05 10:52:38;;;;;;;9.23;4.35;;;;;;;16.86;82.61;101790.69;4993975;28;20492;-79
2023/10/05 10:55:08;;;;;;;15.50;4.72;;;;;;;16.86;82.37;101788.06;4995786;28;20136;-79
2023/10/05 10:57:36;;;;;;;14.00;4.70;;;;;;;16.96;82.51;101788.69;4996784;28;20062;-77
2023/10/05 11:02:44;;;;;;;10.05;4.00;;;;;;;17.06;82.14;101799.03;4996420;28;20117;-79
2023/10/05 11:05:15;;;;;;;12.95;4.78;;;;;;;17.13;81.60;101790.25;4994098;28;20050;-78
2023/10/05 11:07:43;;;;;;;22.27;5.47;;;;;;;17.04;81.39;101782.53;4993313;28;20072;-78
2023/10/05 11:10:18;;;;;;;22.55;4.97;;;;;;;17.09;81.84;101791.59;4992303;28;20138;-78
2023/10/05 11:12:53;;;;;;;11.40;4.47;;;;;;;17.13;80.59;101786.81;4994721;28;20516;-79
2023/10/05 11:15:30;;;;;;;12.07;4.30;;;;;;;17.29;79.87;101780.63;4998545;28;20054;-78
2023/10/05 11:18:00;;;;;;;24.92;6.35;;;;;;;17.03;78.87;101779.06;4997968;28;20113;-80
2023/10/05 11:20:33;;;;;;;8.95;3.97;;;;;;;17.13;79.27;101781.50;4993872;28;20046;-79
2023/10/05 11:23:03;;;;;;;14.30;4.32;;;;;;;17.47;79.69;101789.16;4994474;28;20057;-79
2023/10/05 11:25:34;;;;;;;11.80;4.00;;;;;;;17.57;80.04;101784.44;4994618;28;20057;-78
2023/10/05 11:28:01;;;;;;;14.90;4.28;;;;;;;17.52;79.19;101771.72;5006961;28;20642;-79
2023/10/05 11:30:41;;;;;;;11.68;4.20;;;;;;;17.32;79.21;101773.19;5001544;28;20065;-79
2023/10/05 11:33:15;;;;;;;11.00;4.38;;;;;;;17.41;79.29;101758.09;4988250;28;20050;-80
2023/10/05 11:35:48;;;;;;;14.45;5.00;;;;;;;17.53;79.14;101767.25;5001388;28;20046;-81
2023/10/05 11:38:16;;;;;;;14.32;4.40;;;;;;;17.32;79.09;101764.41;4996975;28;20349;-80
2023/10/05 11:40:49;;;;;;;18.10;4.28;;;;;;;17.33;79.20;101760.78;4997436;28;20209;-81
2023/10/05 11:43:17;;;;;;;9.43;4.30;;;;;;;17.25;79.79;101764.28;4996606;28;20066;-80
2023/10/05 11:45:59;;;;;;;10.60;4.40;;;;;;;17.17;80.08;101767.78;5012878;28;20053;-81
2023/10/05 11:48:40;;;;;;;10.88;3.95;;;;;;;17.30;80.12;101761.13;5005128;28;20042;-79
2023/10/05 11:51:13;;;;;;;10.50;4.03;;;;;;;17.34;79.86;101757.94;5002427;28;20129;-81
2023/10/05 11:53:40;;;;;;;7.43;3.80;;;;;;;17.51;79.37;101748.91;5000060;28;20055;-80
2023/10/05 11:56:07;;;;;;;11.85;4.15;;;;;;;17.62;78.83;101746.88;5005609;28;20476;-80
2023/10/05 11:58:36;;;;;;;12.10;4.25;;;;;;;17.71;78.76;101759.09;5005016;28;20073;-81
2023/10/05 12:01:03;;;;;;;9.60;4.18;;;;;;;17.53;79.09;101752.22;4997783;28;20073;-80
2023/10/05 12:03:30;;;;;;;15.57;4.50;;;;;;;17.65;79.27;101771.19;4998717;28;20130;-79
2023/10/05 12:06:00;;;;;;;13.27;4.43;;;;;;;17.97;78.73;101759.56;5003145;28;20048;-80
2023/10/05 12:08:29;;;;;;;14.52;4.10;;;;;;;17.94;78.55;101759.13;4997373;28;20054;-78
2023/10/05 12:10:59;;;;;;;11.77;4.43;;;;;;;17.80;78.29;101758.03;5006707;28;20057;-81
2023/10/05 12:13:25;;;;;;;12.60;4.30;;;;;;;17.92;76.98;101739.94;4997500;28;20054;-80
2023/10/05 12:15:52;;;;;;;11.48;4.35;;;;;;;17.97;77.71;101748.97;4999767;28;20078;-78
2023/10/05 12:18:19;;;;;;;12.35;3.90;;;;;;;18.02;77.85;101751.91;4997132;28;20085;-80
2023/10/05 12:20:47;;;;;;;11.15;3.45;;;;;;;18.10;76.50;101743.91;4997258;28;20051;-80
2023/10/05 12:23:14;;;;;;;13.73;4.30;;;;;;;18.20;76.07;101741.84;4999532;28;20046;-80
2023/10/05 12:25:43;;;;;;;11.98;4.40;;;;;;;18.01;76.55;101741.50;5000894;28;20085;-81
2023/10/05 12:28:11;;;;;;;13.55;4.20;;;;;;;18.16;75.11;101732.59;5009535;28;20043;-81
2023/10/05 12:30:39;;;;;;;8.35;3.83;;;;;;;18.24;74.92;101732.53;5010313;28;20105;-80
2023/10/05 12:33:06;;;;;;;10.15;4.20;;;;;;;18.22;74.86;101739.81;5001383;28;20059;-81
2023/10/05 12:35:36;;;;;;;11.57;3.92;;;;;;;18.47;74.29;101740.41;5010841;28;20046;-82
2023/10/05 12:38:06;;;;;;;9.15;3.75;;;;;;;18.60;73.85;101744.25;5010267;28;20058;-80
2023/10/05 12:40:34;;;;;;;10.93;4.43;;;;;;;18.70;73.96;101744.84;5002343;28;20055;-81
2023/10/05 12:43:03;;;;;;;14.82;4.45;;;;;;;18.91;73.22;101729.03;5002499;28;20054;-81
2023/10/05 12:45:30;;;;;;;11.82;4.20;;;;;;;19.02;72.91;101723.25;5010046;28;20066;-80
2023/10/05 12:48:25;;;;;;;14.45;4.03;;;;;;;19.21;72.64;101733.31;5053210;22;20468;-81
2023/10/05 12:51:19;;;;;;;14.82;4.25;;;;;;;19.07;72.56;101709.44;5033716;28;20068;-80
2023/10/05 12:54:29;;;;;;;;;;;;;;;;;;;;;
2023/10/05 12:57:36;;;;;;;;;;;;;;;;;;;;;